Time;durP1;ratioP1;P1;durP2;ratioP2;P2;SDS_P1;SDS_P2;PMS_P1;PMS_P2;Temp;Humidity;BMP_temperature;BMP_pressure;BME280_temperature;BME280_humidity;BME280_pressure;Samples;Min_cycle;Max_cycle;Signal;HPM_P1;HPM_P2
2022/06/05 00:06:15;;;;;;;6.80;5.30;;;;;;;15.20;58.85;99870.06;447390;1269;142550;-59
2022/06/05 00:16:21;;;;;;;7.50;5.90;;;;;;;15.11;59.52;99871.59;436789;1269;142137;-59
2022/06/05 00:26:31;;;;;;;6.70;5.90;;;;;;;15.06;60.25;99866.70;431164;1270;146387;-58
2022/06/05 00:36:54;;;;;;;5.60;5.10;;;;;;;14.96;60.69;99868.52;431506;1270;142831;-60
2022/06/05 00:46:58;;;;;;;6.70;6.10;;;;;;;14.90;61.31;99877.10;444869;1270;142024;-59
2022/06/05 00:57:01;;;;;;;5.60;5.10;;;;;;;14.85;61.69;99878.19;432076;1270;145034;-58
2022/06/05 01:07:05;;;;;;;6.50;5.40;;;;;;;14.76;61.85;99897.60;446438;1269;142151;-59
2022/06/05 01:17:17;;;;;;;6.20;5.60;;;;;;;14.70;62.21;99913.48;441803;1269;142449;-60
2022/06/05 01:27:26;;;;;;;7.10;6.20;;;;;;;14.54;62.71;99900.42;435710;1270;145249;-62
2022/06/05 01:37:31;;;;;;;;;;;;;;;14.34;63.22;99900.65;442586;1270;143705;-58
2022/06/05 01:47:39;;;;;;;7.70;6.90;;;;;;;14.20;63.78;99912.27;434304;1270;129137;-59
2022/06/05 01:57:43;;;;;;;7.90;7.20;;;;;;;14.05;64.42;99913.73;442561;1269;143285;-59
2022/06/05 02:07:48;;;;;;;8.30;7.10;;;;;;;13.96;64.86;99920.38;440768;1270;142173;-63
2022/06/05 02:17:51;;;;;;;8.30;7.40;;;;;;;13.86;65.26;99935.48;433665;1270;146299;-59
2022/06/05 02:27:59;;;;;;;7.10;6.40;;;;;;;13.85;65.51;99944.54;435720;1270;142684;-57
2022/06/05 02:38:13;;;;;;;7.10;6.30;;;;;;;13.81;65.69;99947.98;447080;1269;147958;-59
2022/06/05 02:48:27;;;;;;;8.20;6.40;;;;;;;13.72;65.78;99946.34;447090;1269;142938;-57
2022/06/05 02:58:30;;;;;;;9.80;6.00;;;;;;;13.64;65.98;99952.58;447791;1269;142140;-59
2022/06/05 03:08:33;;;;;;;6.80;6.20;;;;;;;13.56;66.08;99951.89;447102;1269;144956;-59
2022/06/05 03:18:37;;;;;;;15.10;7.00;;;;;;;13.46;66.27;99950.48;440581;1271;141383;-57
2022/06/05 03:28:41;;;;;;;7.10;6.40;;;;;;;13.43;66.41;99957.48;447759;1269;142042;-59
2022/06/05 03:38:45;;;;;;;7.50;6.40;;;;;;;13.45;66.40;99956.84;447700;1270;143045;-59
2022/06/05 03:48:48;;;;;;;8.10;6.10;;;;;;;13.75;66.50;99966.55;439969;1269;143430;-59
2022/06/05 03:58:51;;;;;;;8.90;5.60;;;;;;;15.18;65.81;99967.48;441768;1269;143424;-59
2022/06/05 04:08:55;;;;;;;5.40;4.90;;;;;;;20.80;59.26;99953.77;443814;1269;141869;-59
2022/06/05 04:19:00;;;;;;;5.00;4.50;;;;;;;25.23;51.67;99948.69;447857;1269;142770;-60
2022/06/05 04:29:03;;;;;;;5.40;4.10;;;;;;;28.11;45.29;99949.27;444288;1269;201870;-59
2022/06/05 04:39:06;;;;;;;4.50;4.00;;;;;;;31.49;40.36;99955.11;447816;1269;142521;-59
2022/06/05 04:49:11;;;;;;;5.10;4.60;;;;;;;33.06;35.25;99950.23;447198;1270;140544;-58
2022/06/05 04:59:15;;;;;;;4.10;3.80;;;;;;;34.86;32.75;99953.89;442656;1269;141838;-59
2022/06/05 05:09:18;;;;;;;7.30;3.90;;;;;;;37.48;29.74;99954.65;446731;1270;141966;-60
2022/06/05 05:19:21;;;;;;;4.40;4.00;;;;;;;40.00;26.68;99956.00;446617;1269;141738;-60
2022/06/05 05:29:24;;;;;;;5.80;3.70;;;;;;;41.76;23.74;99958.56;447114;1268;141587;-60
2022/06/05 05:49:51;;;;;;;3.60;3.30;;;;;;;44.48;20.55;99966.98;432962;1270;128673;-62
2022/06/05 05:59:55;;;;;;;4.80;3.40;;;;;;;45.74;18.95;99966.73;447757;1270;141157;-60
2022/06/05 06:09:58;;;;;;;3.50;3.20;;;;;;;47.48;17.41;99963.39;440881;1269;143073;-60
2022/06/05 06:20:01;;;;;;;3.60;3.30;;;;;;;48.05;16.20;99959.48;445948;1269;141966;-60
2022/06/05 06:30:05;;;;;;;3.20;2.90;;;;;;;47.66;15.38;99958.83;439645;1270;143570;-60
2022/06/05 06:40:10;;;;;;;4.80;3.20;;;;;;;47.92;14.86;99954.67;446197;1269;141664;-59
2022/06/05 06:50:14;;;;;;;3.80;3.20;;;;;;;49.46;14.09;99955.90;438269;1270;147229;-59
2022/06/05 07:00:18;;;;;;;3.10;2.90;;;;;;;49.47;13.48;99960.41;447763;1270;142079;-59
2022/06/05 07:10:21;;;;;;;3.40;3.20;;;;;;;49.81;12.76;99957.28;447879;1269;142830;-60
2022/06/05 07:20:24;;;;;;;4.40;4.30;;;;;;;49.17;12.30;99958.06;447095;1269;142369;-59
2022/06/05 07:30:28;;;;;;;4.80;4.60;;;;;;;49.61;12.03;99957.10;433357;1270;142031;-59
2022/06/05 07:40:31;;;;;;;4.40;4.20;;;;;;;50.27;11.22;99953.91;443289;1269;141071;-60
2022/06/05 07:50:34;;;;;;;2.40;2.30;;;;;;;48.85;11.60;99944.78;435259;1270;141800;-59
2022/06/05 08:00:38;;;;;;;3.00;1.80;;;;;;;41.93;13.84;99938.09;444386;1269;141842;-59
2022/06/05 08:10:41;;;;;;;2.20;1.80;;;;;;;34.22;18.31;99948.17;439110;1270;141098;-59
2022/06/05 08:20:44;;;;;;;2.70;2.50;;;;;;;30.99;21.34;99945.19;443849;1269;142260;-59
2022/06/05 08:30:47;;;;;;;2.90;2.60;;;;;;;28.80;23.97;99951.41;447675;1268;231959;-59
2022/06/05 08:51:34;;;;;;;2.80;2.30;;;;;;;26.98;27.51;99956.96;439812;1270;140769;-59
2022/06/05 09:01:45;;;;;;;5.50;2.40;;;;;;;26.79;28.11;99958.73;443009;1270;142442;-60
2022/06/05 09:11:55;;;;;;;2.40;2.10;;;;;;;26.44;28.27;99956.11;447540;1270;197586;-60
2022/06/05 09:22:05;;;;;;;2.80;2.10;;;;;;;26.12;28.77;99950.85;447894;1269;141606;-60
2022/06/05 09:32:22;;;;;;;2.60;2.40;;;;;;;25.76;29.29;99957.62;442505;1269;142920;-58
2022/06/05 09:42:46;;;;;;;3.10;2.50;;;;;;;25.27;29.93;99965.52;437977;1269;140607;-59
2022/06/05 09:52:50;;;;;;;3.00;2.30;;;;;;;25.00;30.76;99960.27;430622;1270;144836;-60
2022/06/05 10:02:59;;;;;;;2.70;2.30;;;;;;;24.59;31.02;99960.50;443844;1269;141325;-58
2022/06/05 10:13:11;;;;;;;4.60;2.40;;;;;;;24.42;31.08;99955.39;447870;1270;141954;-61
2022/06/05 10:23:22;;;;;;;2.00;1.90;;;;;;;24.16;31.56;99941.38;442697;1269;143123;-59
2022/06/05 10:33:41;;;;;;;2.40;2.30;;;;;;;23.83;31.82;99934.92;432207;1270;141022;-58
2022/06/05 10:44:11;;;;;;;2.90;2.60;;;;;;;23.63;32.52;99931.58;432171;1270;142146;-59
2022/06/05 10:54:31;;;;;;;3.20;2.70;;;;;;;23.32;32.85;99922.27;435755;1269;140933;-56
2022/06/05 11:04:47;;;;;;;5.90;3.70;;;;;;;23.04;33.53;99919.67;446672;1268;142557;-57
2022/06/05 11:14:58;;;;;;;4.00;2.30;;;;;;;22.81;33.41;99924.20;445075;1269;140828;-58
2022/06/05 11:25:14;;;;;;;4.00;2.30;;;;;;;22.80;33.20;99920.26;435467;1270;141177;-58
2022/06/05 11:35:25;;;;;;;3.80;2.10;;;;;;;22.76;32.66;99908.48;434817;1268;141355;-57
2022/06/05 11:45:41;;;;;;;3.80;1.50;;;;;;;22.62;32.34;99897.16;447770;1269;142802;-58
2022/06/05 11:56:02;;;;;;;2.70;1.90;;;;;;;22.44;32.52;99885.95;431681;1270;166809;-57
2022/06/05 12:06:11;;;;;;;2.60;1.80;;;;;;;22.43;32.16;99877.86;439552;1269;142510;-57
2022/06/05 12:16:21;;;;;;;1.70;1.50;;;;;;;22.50;32.03;99872.39;435235;1270;141145;-58
2022/06/05 12:26:37;;;;;;;2.30;2.10;;;;;;;22.63;31.79;99868.33;446926;1270;141851;-59
2022/06/05 12:36:43;;;;;;;1.70;1.60;;;;;;;22.50;31.23;99860.82;447696;1268;142806;-57
2022/06/05 12:46:53;;;;;;;3.60;2.00;;;;;;;22.32;31.20;99850.13;446890;1270;144887;-59
2022/06/05 12:56:58;;;;;;;1.00;1.00;;;;;;;22.47;31.03;99840.15;447859;1269;142394;-58
2022/06/05 13:07:10;;;;;;;1.50;1.40;;;;;;;22.42;30.07;99840.12;446685;1268;141596;-59
2022/06/05 13:17:19;;;;;;;0.90;0.90;;;;;;;22.30;29.34;99833.55;438170;1270;199075;-56
2022/06/05 13:27:48;;;;;;;1.40;0.80;;;;;;;22.32;28.11;99831.27;447548;1270;143516;-58
2022/06/05 13:37:56;;;;;;;1.20;0.90;;;;;;;22.28;26.57;99829.50;437291;1269;142397;-59
2022/06/05 13:48:08;;;;;;;1.20;0.50;;;;;;;22.14;25.77;99814.88;439236;1270;141481;-58
2022/06/05 13:58:21;;;;;;;0.80;0.80;;;;;;;22.05;25.16;99803.83;434393;1270;141121;-60
2022/06/05 14:08:27;;;;;;;0.80;0.50;;;;;;;22.10;24.58;99794.75;441792;1268;141445;-60
2022/06/05 14:18:42;;;;;;;0.50;0.50;;;;;;;22.14;24.34;99781.83;440604;1270;142185;-59
2022/06/05 14:28:46;;;;;;;0.50;0.50;;;;;;;22.20;24.44;99768.64;447067;1270;141726;-58
2022/06/05 14:38:53;;;;;;;1.40;1.30;;;;;;;22.24;24.21;99755.42;437844;1270;142613;-59
2022/06/05 14:49:02;;;;;;;1.10;1.00;;;;;;;22.25;25.68;99752.41;447390;1270;142357;-59
2022/06/05 14:59:12;;;;;;;1.40;1.30;;;;;;;22.19;27.21;99742.46;447028;1269;142683;-58
2022/06/05 15:09:23;;;;;;;1.30;1.20;;;;;;;22.18;27.79;99732.88;442803;1269;142812;-57
2022/06/05 15:19:30;;;;;;;1.30;1.20;;;;;;;22.17;28.45;99727.19;433771;1270;142252;-57
2022/06/05 15:29:40;;;;;;;1.70;1.60;;;;;;;22.17;28.98;99725.42;429939;1270;141471;-58
2022/06/05 15:39:49;;;;;;;0.80;0.80;;;;;;;22.11;29.04;99712.77;430482;1270;141831;-58
2022/06/05 15:50:04;;;;;;;2.40;0.80;;;;;;;22.05;28.56;99720.47;447157;1269;142610;-58
2022/06/05 16:00:14;;;;;;;1.00;0.90;;;;;;;22.04;28.57;99713.77;447922;1269;141445;-58
2022/06/05 16:10:23;;;;;;;1.70;0.80;;;;;;;22.05;28.27;99709.80;432781;1270;142089;-57
2022/06/05 16:20:43;;;;;;;1.00;0.90;;;;;;;21.98;27.97;99706.39;433183;1268;143035;-56
2022/06/05 16:30:48;;;;;;;2.70;1.30;;;;;;;21.89;28.93;99691.90;432164;1269;142293;-56
2022/06/05 16:40:57;;;;;;;2.60;1.30;;;;;;;21.83;30.61;99683.22;446977;1269;142786;-58
2022/06/05 16:51:04;;;;;;;3.00;1.30;;;;;;;22.71;30.65;99679.83;439086;1270;142570;-57
2022/06/05 17:01:08;;;;;;;1.30;1.00;;;;;;;22.36;29.95;99671.04;431218;1270;141774;-58
2022/06/05 17:11:29;;;;;;;1.10;1.10;;;;;;;21.81;29.38;99667.09;430634;1270;141645;-59
2022/06/05 17:21:41;;;;;;;2.40;2.00;;;;;;;21.49;29.75;99656.45;439543;1270;142344;-58
2022/06/05 17:31:56;;;;;;;1.50;1.40;;;;;;;21.29;30.80;99643.54;442687;1269;142098;-58
2022/06/05 17:42:12;;;;;;;1.60;1.20;;;;;;;21.02;31.74;99642.07;441751;1270;143018;-57
2022/06/05 17:52:20;;;;;;;1.50;1.40;;;;;;;20.84;31.67;99636.02;446970;1270;140932;-57
2022/06/05 18:02:27;;;;;;;2.80;1.40;;;;;;;20.78;31.18;99626.13;445040;1270;141517;-57
2022/06/05 18:12:35;;;;;;;2.40;2.20;;;;;;;20.24;31.93;99625.38;447627;1270;141891;-59
2022/06/05 18:22:47;;;;;;;1.80;1.30;;;;;;;19.85;32.88;99619.55;447083;1270;142250;-59
2022/06/05 18:32:58;;;;;;;1.60;1.50;;;;;;;19.48;33.62;99627.38;437056;1270;210051;-59
2022/06/05 18:43:06;;;;;;;3.00;1.50;;;;;;;19.10;34.64;99636.59;432033;1270;142276;-55
2022/06/05 18:53:18;;;;;;;1.70;1.60;;;;;;;18.76;35.71;99645.05;431887;1270;142685;-58
2022/06/05 19:03:28;;;;;;;1.80;1.50;;;;;;;18.40;36.85;99652.95;431531;1271;140888;-58
2022/06/05 19:13:43;;;;;;;5.90;2.90;;;;;;;17.98;37.93;99665.92;431576;1270;141104;-58
2022/06/05 19:23:56;;;;;;;4.50;2.50;;;;;;;17.67;39.07;99677.73;433725;1271;141875;-58
2022/06/05 19:34:04;;;;;;;3.90;2.20;;;;;;;17.40;39.91;99682.34;433373;1270;197377;-58
2022/06/05 19:44:18;;;;;;;3.80;2.20;;;;;;;17.08;40.61;99681.46;431879;1271;141810;-57
2022/06/05 19:54:25;;;;;;;11.20;2.90;;;;;;;16.77;41.71;99695.02;432597;1271;141146;-58
2022/06/05 20:04:33;;;;;;;9.70;2.90;;;;;;;16.39;44.83;99698.95;432430;1271;143467;-58
2022/06/05 20:14:47;;;;;;;8.60;2.90;;;;;;;15.99;45.83;99691.76;432042;1270;141635;-58
2022/06/05 20:24:52;;;;;;;5.50;3.20;;;;;;;15.62;47.42;99694.54;433744;1270;142426;-57
2022/06/05 20:34:55;;;;;;;16.30;5.50;;;;;;;15.13;49.21;99698.52;430720;1270;275897;-58
2022/06/05 20:45:19;;;;;;;14.80;9.00;;;;;;;14.73;50.50;99697.45;431399;1269;145398;-58
2022/06/05 20:55:25;;;;;;;21.50;11.20;;;;;;;14.35;52.05;99714.98;433330;1270;142103;-59
2022/06/05 21:26:11;;;;;;;5.40;3.90;;;;;;;13.97;52.39;99705.89;430914;1270;141056;-59
2022/06/05 21:36:14;;;;;;;7.40;4.60;;;;;;;13.94;52.34;99702.27;432219;1270;141197;-58
2022/06/05 21:46:25;;;;;;;3.90;3.30;;;;;;;13.78;53.14;99709.65;432139;1270;141779;-58
2022/06/05 21:56:32;;;;;;;3.50;2.60;;;;;;;13.73;52.99;99713.91;431775;1270;141895;-59
2022/06/05 22:06:36;;;;;;;4.10;2.90;;;;;;;13.60;53.21;99724.34;432006;1270;141790;-58
2022/06/05 22:16:41;;;;;;;3.00;2.70;;;;;;;13.73;52.30;99729.23;431252;1270;141105;-59
2022/06/05 22:26:45;;;;;;;3.10;2.60;;;;;;;13.88;51.60;99730.73;431039;1270;142613;-57
2022/06/05 22:36:48;;;;;;;2.40;2.20;;;;;;;14.09;50.83;99717.55;431047;1269;146890;-59
2022/06/05 22:46:51;;;;;;;3.10;2.20;;;;;;;14.23;50.27;99716.22;430869;1270;140933;-56
2022/06/05 22:56:54;;;;;;;2.80;2.60;;;;;;;14.35;49.97;99709.02;431395;1271;144498;-57
2022/06/05 23:06:57;;;;;;;4.70;2.50;;;;;;;14.36;50.01;99699.05;432326;1270;141836;-57
2022/06/05 23:17:01;;;;;;;3.80;3.40;;;;;;;14.33;50.38;99678.17;431206;1270;140853;-57
2022/06/05 23:27:06;;;;;;;4.10;3.60;;;;;;;14.46;50.95;99663.23;431214;1270;141922;-56
2022/06/05 23:37:11;;;;;;;4.90;3.80;;;;;;;14.56;51.40;99639.73;431841;1270;140861;-57
2022/06/05 23:47:16;;;;;;;4.70;3.80;;;;;;;14.56;51.83;99623.33;431615;1270;142097;-57
2022/06/05 23:57:31;;;;;;;6.80;4.80;;;;;;;14.53;52.25;99623.38;432038;1269;140990;-58
